Coin, Iowa
Current Conditions -  °F | °C
As of 8:55 PM on Tuesday 25 Nov 2014 (Local Time) from KICL Reporting Station
Overcast Overcast  
Wind Chill: -2°   Ceiling: 10000
Heat Index:   Visibility: 10mi
Dew Point: -7°   Wind: 10mph
Humidity: 52%   Direction: 160°SSE
Pressure: 29.99"   Gusts: NA
Location:  40.65°N, 95.23°W
Report Text: KICL 260255Z AUTO 16009KT 10SM SCT075 OVC100 02/M07 A2999 RMK AO2
Loading
Personal Weather Stations






























Interactive Weather Map New forecast layout! Learn more

10-Day Weather Forecast

Advertisements
Track Severe Weather on mobile